sensor_id;sensor_type;location;lat;lon;timestamp;P1;durP1;ratioP1;P2;durP2;ratioP2
10641;SDS011;5369;49.586;8.646;2023-04-01T00:00:57;3.73;;;1.80;;
10641;SDS011;5369;49.586;8.646;2023-04-01T00:03:24;4.47;;;1.40;;
10641;SDS011;5369;49.586;8.646;2023-04-01T00:05:52;4.67;;;1.70;;
10641;SDS011;5369;49.586;8.646;2023-04-01T00:08:18;3.43;;;1.00;;
10641;SDS011;5369;49.586;8.646;2023-04-01T00:10:45;4.17;;;1.50;;
10641;SDS011;5369;49.586;8.646;2023-04-01T00:13:11;5.97;;;1.50;;
10641;SDS011;5369;49.586;8.646;2023-04-01T00:15:37;3.77;;;1.40;;
10641;SDS011;5369;49.586;8.646;2023-04-01T00:18:03;3.33;;;1.53;;
10641;SDS011;5369;49.586;8.646;2023-04-01T00:20:30;2.93;;;1.30;;
10641;SDS011;5369;49.586;8.646;2023-04-01T00:22:56;3.53;;;1.30;;
10641;SDS011;5369;49.586;8.646;2023-04-01T00:25:23;4.20;;;1.37;;
10641;SDS011;5369;49.586;8.646;2023-04-01T00:27:49;5.87;;;1.40;;
10641;SDS011;5369;49.586;8.646;2023-04-01T00:30:16;3.83;;;1.03;;
10641;SDS011;5369;49.586;8.646;2023-04-01T00:32:42;2.63;;;1.20;;
10641;SDS011;5369;49.586;8.646;2023-04-01T00:35:08;4.03;;;1.17;;
10641;SDS011;5369;49.586;8.646;2023-04-01T00:37:35;3.40;;;1.20;;
10641;SDS011;5369;49.586;8.646;2023-04-01T00:40:03;4.43;;;1.40;;
10641;SDS011;5369;49.586;8.646;2023-04-01T00:42:30;4.50;;;1.10;;
10641;SDS011;5369;49.586;8.646;2023-04-01T00:44:56;4.63;;;1.37;;
10641;SDS011;5369;49.586;8.646;2023-04-01T00:47:23;4.57;;;1.30;;
10641;SDS011;5369;49.586;8.646;2023-04-01T00:49:51;4.83;;;1.57;;
10641;SDS011;5369;49.586;8.646;2023-04-01T00:52:19;3.67;;;1.37;;
10641;SDS011;5369;49.586;8.646;2023-04-01T00:54:48;3.93;;;1.17;;
10641;SDS011;5369;49.586;8.646;2023-04-01T00:57:16;4.63;;;1.30;;
10641;SDS011;5369;49.586;8.646;2023-04-01T00:59:46;4.17;;;1.30;;
10641;SDS011;5369;49.586;8.646;2023-04-01T01:02:15;2.60;;;1.10;;
10641;SDS011;5369;49.586;8.646;2023-04-01T01:04:42;4.77;;;1.50;;
10641;SDS011;5369;49.586;8.646;2023-04-01T01:14:59;4.47;;;1.30;;
10641;SDS011;5369;49.586;8.646;2023-04-01T01:25:38;4.13;;;1.30;;
10641;SDS011;5369;49.586;8.646;2023-04-01T01:28:14;3.83;;;1.17;;
10641;SDS011;5369;49.586;8.646;2023-04-01T01:30:57;3.27;;;1.20;;
10641;SDS011;5369;49.586;8.646;2023-04-01T01:33:32;4.77;;;1.40;;
10641;SDS011;5369;49.586;8.646;2023-04-01T01:36:01;5.77;;;1.70;;
10641;SDS011;5369;49.586;8.646;2023-04-01T01:38:29;6.13;;;1.40;;
10641;SDS011;5369;49.586;8.646;2023-04-01T01:41:02;3.30;;;1.20;;
10641;SDS011;5369;49.586;8.646;2023-04-01T01:43:31;5.00;;;1.60;;
10641;SDS011;5369;49.586;8.646;2023-04-01T01:46:00;5.47;;;2.50;;
10641;SDS011;5369;49.586;8.646;2023-04-01T01:48:28;3.07;;;1.40;;
10641;SDS011;5369;49.586;8.646;2023-04-01T01:50:55;4.03;;;1.50;;
10641;SDS011;5369;49.586;8.646;2023-04-01T01:53:21;6.60;;;1.90;;
10641;SDS011;5369;49.586;8.646;2023-04-01T01:55:48;2.80;;;1.30;;
10641;SDS011;5369;49.586;8.646;2023-04-01T02:00:45;3.67;;;1.20;;
10641;SDS011;5369;49.586;8.646;2023-04-01T02:03:14;5.13;;;1.40;;
10641;SDS011;5369;49.586;8.646;2023-04-01T02:05:41;3.10;;;1.17;;
10641;SDS011;5369;49.586;8.646;2023-04-01T02:08:12;4.80;;;1.37;;
10641;SDS011;5369;49.586;8.646;2023-04-01T02:10:41;4.87;;;1.40;;
10641;SDS011;5369;49.586;8.646;2023-04-01T02:13:19;5.97;;;1.40;;
10641;SDS011;5369;49.586;8.646;2023-04-01T02:15:46;4.70;;;1.27;;
10641;SDS011;5369;49.586;8.646;2023-04-01T02:18:13;3.77;;;1.30;;
10641;SDS011;5369;49.586;8.646;2023-04-01T02:20:40;5.47;;;1.30;;
10641;SDS011;5369;49.586;8.646;2023-04-01T02:23:07;4.10;;;1.40;;
10641;SDS011;5369;49.586;8.646;2023-04-01T02:25:35;4.07;;;1.37;;
10641;SDS011;5369;49.586;8.646;2023-04-01T02:28:02;5.47;;;1.53;;
10641;SDS011;5369;49.586;8.646;2023-04-01T02:30:29;4.83;;;1.30;;
10641;SDS011;5369;49.586;8.646;2023-04-01T02:32:57;5.37;;;1.50;;
10641;SDS011;5369;49.586;8.646;2023-04-01T02:35:24;3.30;;;1.17;;
10641;SDS011;5369;49.586;8.646;2023-04-01T02:37:52;4.60;;;1.40;;
10641;SDS011;5369;49.586;8.646;2023-04-01T02:40:18;4.07;;;1.30;;
10641;SDS011;5369;49.586;8.646;2023-04-01T02:42:44;5.13;;;1.80;;
10641;SDS011;5369;49.586;8.646;2023-04-01T02:45:11;4.17;;;1.50;;
10641;SDS011;5369;49.586;8.646;2023-04-01T02:47:37;3.83;;;1.30;;
10641;SDS011;5369;49.586;8.646;2023-04-01T02:50:04;4.77;;;1.33;;
10641;SDS011;5369;49.586;8.646;2023-04-01T02:52:32;4.63;;;1.20;;
10641;SDS011;5369;49.586;8.646;2023-04-01T02:55:00;4.37;;;1.60;;
10641;SDS011;5369;49.586;8.646;2023-04-01T02:57:26;4.53;;;1.40;;
10641;SDS011;5369;49.586;8.646;2023-04-01T02:59:52;3.87;;;1.57;;
10641;SDS011;5369;49.586;8.646;2023-04-01T03:02:18;3.70;;;1.33;;
10641;SDS011;5369;49.586;8.646;2023-04-01T03:04:44;7.97;;;1.50;;
10641;SDS011;5369;49.586;8.646;2023-04-01T03:07:11;4.10;;;1.30;;
10641;SDS011;5369;49.586;8.646;2023-04-01T03:09:37;3.80;;;1.17;;
10641;SDS011;5369;49.586;8.646;2023-04-01T03:12:03;5.13;;;1.13;;
10641;SDS011;5369;49.586;8.646;2023-04-01T03:14:34;5.37;;;1.60;;
10641;SDS011;5369;49.586;8.646;2023-04-01T03:17:01;2.90;;;1.10;;
10641;SDS011;5369;49.586;8.646;2023-04-01T03:19:27;3.73;;;1.07;;
10641;SDS011;5369;49.586;8.646;2023-04-01T03:21:53;1.93;;;0.80;;
10641;SDS011;5369;49.586;8.646;2023-04-01T03:24:19;4.47;;;1.33;;
10641;SDS011;5369;49.586;8.646;2023-04-01T03:26:46;1.73;;;0.90;;
10641;SDS011;5369;49.586;8.646;2023-04-01T03:29:12;3.90;;;1.20;;
10641;SDS011;5369;49.586;8.646;2023-04-01T03:31:40;2.87;;;1.10;;
10641;SDS011;5369;49.586;8.646;2023-04-01T03:34:07;4.23;;;1.03;;
10641;SDS011;5369;49.586;8.646;2023-04-01T03:36:33;3.43;;;1.30;;
10641;SDS011;5369;49.586;8.646;2023-04-01T03:39:00;1.77;;;1.10;;
10641;SDS011;5369;49.586;8.646;2023-04-01T03:41:35;2.77;;;1.10;;
10641;SDS011;5369;49.586;8.646;2023-04-01T03:44:02;3.27;;;1.20;;
10641;SDS011;5369;49.586;8.646;2023-04-01T03:46:28;4.67;;;1.20;;
10641;SDS011;5369;49.586;8.646;2023-04-01T03:48:54;3.77;;;1.30;;
10641;SDS011;5369;49.586;8.646;2023-04-01T03:51:21;3.77;;;1.20;;
10641;SDS011;5369;49.586;8.646;2023-04-01T03:53:47;3.77;;;1.00;;
10641;SDS011;5369;49.586;8.646;2023-04-01T03:56:13;3.03;;;0.90;;
10641;SDS011;5369;49.586;8.646;2023-04-01T03:58:39;3.83;;;1.00;;
10641;SDS011;5369;49.586;8.646;2023-04-01T04:01:17;4.33;;;1.10;;
10641;SDS011;5369;49.586;8.646;2023-04-01T04:03:44;2.20;;;0.93;;
10641;SDS011;5369;49.586;8.646;2023-04-01T04:06:11;3.87;;;1.10;;
10641;SDS011;5369;49.586;8.646;2023-04-01T04:08:38;3.03;;;1.10;;
10641;SDS011;5369;49.586;8.646;2023-04-01T04:11:04;3.70;;;1.20;;
10641;SDS011;5369;49.586;8.646;2023-04-01T04:13:30;4.13;;;1.10;;
10641;SDS011;5369;49.586;8.646;2023-04-01T04:16:00;3.03;;;0.97;;
10641;SDS011;5369;49.586;8.646;2023-04-01T04:18:26;5.07;;;1.00;;
10641;SDS011;5369;49.586;8.646;2023-04-01T04:20:53;2.30;;;1.20;;
10641;SDS011;5369;49.586;8.646;2023-04-01T04:23:19;2.27;;;0.70;;
10641;SDS011;5369;49.586;8.646;2023-04-01T04:28:21;2.93;;;1.10;;
10641;SDS011;5369;49.586;8.646;2023-04-01T04:30:47;3.63;;;1.00;;
10641;SDS011;5369;49.586;8.646;2023-04-01T04:33:13;2.57;;;1.00;;
10641;SDS011;5369;49.586;8.646;2023-04-01T04:35:39;3.83;;;1.10;;
10641;SDS011;5369;49.586;8.646;2023-04-01T04:38:06;2.20;;;1.07;;
10641;SDS011;5369;49.586;8.646;2023-04-01T04:40:32;4.83;;;1.00;;
10641;SDS011;5369;49.586;8.646;2023-04-01T04:42:58;4.50;;;1.20;;
10641;SDS011;5369;49.586;8.646;2023-04-01T04:45:24;3.53;;;1.20;;
10641;SDS011;5369;49.586;8.646;2023-04-01T04:47:54;3.33;;;1.00;;
10641;SDS011;5369;49.586;8.646;2023-04-01T04:50:20;1.87;;;1.00;;
10641;SDS011;5369;49.586;8.646;2023-04-01T04:52:46;3.87;;;1.30;;
10641;SDS011;5369;49.586;8.646;2023-04-01T04:55:12;4.03;;;1.00;;
10641;SDS011;5369;49.586;8.646;2023-04-01T04:57:41;3.10;;;1.03;;
10641;SDS011;5369;49.586;8.646;2023-04-01T05:00:08;4.63;;;1.40;;
10641;SDS011;5369;49.586;8.646;2023-04-01T05:02:57;3.03;;;1.20;;
10641;SDS011;5369;49.586;8.646;2023-04-01T05:05:23;2.97;;;1.20;;
10641;SDS011;5369;49.586;8.646;2023-04-01T05:07:50;2.60;;;1.20;;
10641;SDS011;5369;49.586;8.646;2023-04-01T05:10:16;3.80;;;1.20;;
10641;SDS011;5369;49.586;8.646;2023-04-01T05:12:43;4.63;;;1.50;;
10641;SDS011;5369;49.586;8.646;2023-04-01T05:15:13;5.00;;;1.27;;
10641;SDS011;5369;49.586;8.646;2023-04-01T05:17:40;4.37;;;1.00;;
10641;SDS011;5369;49.586;8.646;2023-04-01T05:20:08;3.83;;;1.20;;
10641;SDS011;5369;49.586;8.646;2023-04-01T05:22:35;5.07;;;1.20;;
10641;SDS011;5369;49.586;8.646;2023-04-01T05:25:02;3.90;;;1.30;;
10641;SDS011;5369;49.586;8.646;2023-04-01T05:27:28;2.40;;;1.00;;
10641;SDS011;5369;49.586;8.646;2023-04-01T05:29:54;6.10;;;1.23;;
10641;SDS011;5369;49.586;8.646;2023-04-01T05:32:37;2.63;;;1.00;;
10641;SDS011;5369;49.586;8.646;2023-04-01T05:35:03;2.60;;;1.37;;
10641;SDS011;5369;49.586;8.646;2023-04-01T05:37:29;4.63;;;1.23;;
10641;SDS011;5369;49.586;8.646;2023-04-01T05:39:55;3.47;;;1.30;;
10641;SDS011;5369;49.586;8.646;2023-04-01T05:42:23;3.53;;;1.10;;
10641;SDS011;5369;49.586;8.646;2023-04-01T05:44:50;5.13;;;1.10;;
10641;SDS011;5369;49.586;8.646;2023-04-01T05:47:34;4.13;;;1.10;;
10641;SDS011;5369;49.586;8.646;2023-04-01T05:50:01;4.60;;;1.10;;
10641;SDS011;5369;49.586;8.646;2023-04-01T05:52:27;3.40;;;0.97;;
10641;SDS011;5369;49.586;8.646;2023-04-01T05:54:54;3.03;;;1.10;;
10641;SDS011;5369;49.586;8.646;2023-04-01T05:57:20;3.43;;;1.20;;
10641;SDS011;5369;49.586;8.646;2023-04-01T05:59:46;3.90;;;1.10;;
10641;SDS011;5369;49.586;8.646;2023-04-01T06:02:12;4.57;;;1.20;;
10641;SDS011;5369;49.586;8.646;2023-04-01T06:04:39;3.93;;;1.20;;
10641;SDS011;5369;49.586;8.646;2023-04-01T06:07:10;3.30;;;1.10;;
10641;SDS011;5369;49.586;8.646;2023-04-01T06:09:37;2.67;;;1.10;;
10641;SDS011;5369;49.586;8.646;2023-04-01T06:12:10;3.87;;;1.20;;
10641;SDS011;5369;49.586;8.646;2023-04-01T06:17:23;5.40;;;1.10;;
10641;SDS011;5369;49.586;8.646;2023-04-01T06:19:57;3.00;;;1.03;;
10641;SDS011;5369;49.586;8.646;2023-04-01T06:30:38;3.70;;;1.30;;
10641;SDS011;5369;49.586;8.646;2023-04-01T06:38:11;4.07;;;1.23;;
10641;SDS011;5369;49.586;8.646;2023-04-01T06:49:46;5.17;;;1.20;;
10641;SDS011;5369;49.586;8.646;2023-04-01T06:55:48;4.47;;;1.20;;
10641;SDS011;5369;49.586;8.646;2023-04-01T06:58:22;3.37;;;1.23;;
10641;SDS011;5369;49.586;8.646;2023-04-01T07:01:00;3.87;;;1.10;;
10641;SDS011;5369;49.586;8.646;2023-04-01T07:03:41;3.03;;;1.03;;
10641;SDS011;5369;49.586;8.646;2023-04-01T07:06:10;2.57;;;0.90;;
10641;SDS011;5369;49.586;8.646;2023-04-01T07:08:47;2.87;;;0.90;;
10641;SDS011;5369;49.586;8.646;2023-04-01T07:11:25;4.33;;;1.23;;
10641;SDS011;5369;49.586;8.646;2023-04-01T07:14:33;2.40;;;0.90;;
10641;SDS011;5369;49.586;8.646;2023-04-01T07:17:20;1.30;;;0.90;;
10641;SDS011;5369;49.586;8.646;2023-04-01T07:19:50;1.77;;;0.70;;
10641;SDS011;5369;49.586;8.646;2023-04-01T07:25:07;1.60;;;0.70;;
10641;SDS011;5369;49.586;8.646;2023-04-01T07:27:37;1.70;;;0.87;;
10641;SDS011;5369;49.586;8.646;2023-04-01T07:30:06;3.70;;;1.10;;
10641;SDS011;5369;49.586;8.646;2023-04-01T07:35:13;3.17;;;1.03;;
10641;SDS011;5369;49.586;8.646;2023-04-01T07:40:32;1.27;;;0.70;;
10641;SDS011;5369;49.586;8.646;2023-04-01T07:45:36;2.10;;;0.80;;
10641;SDS011;5369;49.586;8.646;2023-04-01T07:56:38;3.93;;;1.10;;
10641;SDS011;5369;49.586;8.646;2023-04-01T07:59:17;2.17;;;0.80;;
10641;SDS011;5369;49.586;8.646;2023-04-01T08:07:13;3.03;;;0.93;;
10641;SDS011;5369;49.586;8.646;2023-04-01T08:12:45;2.10;;;1.00;;
10641;SDS011;5369;49.586;8.646;2023-04-01T08:16:09;1.97;;;0.90;;
10641;SDS011;5369;49.586;8.646;2023-04-01T08:23:48;3.87;;;1.27;;
10641;SDS011;5369;49.586;8.646;2023-04-01T08:28:53;1.90;;;1.00;;
10641;SDS011;5369;49.586;8.646;2023-04-01T08:33:56;1.87;;;0.93;;
10641;SDS011;5369;49.586;8.646;2023-04-01T08:36:25;2.23;;;0.97;;
10641;SDS011;5369;49.586;8.646;2023-04-01T08:39:09;2.50;;;0.90;;
10641;SDS011;5369;49.586;8.646;2023-04-01T08:49:45;1.70;;;0.97;;
10641;SDS011;5369;49.586;8.646;2023-04-01T08:55:22;2.10;;;1.17;;
10641;SDS011;5369;49.586;8.646;2023-04-01T08:58:04;2.57;;;1.10;;
10641;SDS011;5369;49.586;8.646;2023-04-01T09:03:34;3.07;;;0.97;;
10641;SDS011;5369;49.586;8.646;2023-04-01T09:08:50;2.30;;;1.03;;
10641;SDS011;5369;49.586;8.646;2023-04-01T09:19:17;3.37;;;1.23;;
10641;SDS011;5369;49.586;8.646;2023-04-01T09:37:33;2.53;;;1.13;;
10641;SDS011;5369;49.586;8.646;2023-04-01T09:40:15;1.40;;;1.07;;
10641;SDS011;5369;49.586;8.646;2023-04-01T09:48:24;2.83;;;0.90;;
10641;SDS011;5369;49.586;8.646;2023-04-01T09:56:09;1.63;;;1.00;;
10641;SDS011;5369;49.586;8.646;2023-04-01T10:01:52;1.93;;;0.90;;
10641;SDS011;5369;49.586;8.646;2023-04-01T10:12:29;2.03;;;1.10;;
10641;SDS011;5369;49.586;8.646;2023-04-01T10:36:03;1.60;;;0.90;;
10641;SDS011;5369;49.586;8.646;2023-04-01T10:38:56;1.60;;;0.93;;
10641;SDS011;5369;49.586;8.646;2023-04-01T10:47:32;1.20;;;0.93;;
10641;SDS011;5369;49.586;8.646;2023-04-01T10:52:58;2.00;;;1.13;;
10641;SDS011;5369;49.586;8.646;2023-04-01T11:10:34;6.87;;;1.17;;
10641;SDS011;5369;49.586;8.646;2023-04-01T11:13:15;2.73;;;1.10;;
10641;SDS011;5369;49.586;8.646;2023-04-01T11:31:40;1.73;;;0.90;;
10641;SDS011;5369;49.586;8.646;2023-04-01T11:43:14;1.17;;;1.00;;
10641;SDS011;5369;49.586;8.646;2023-04-01T11:46:12;1.10;;;1.00;;
10641;SDS011;5369;49.586;8.646;2023-04-01T11:48:52;2.93;;;1.10;;
10641;SDS011;5369;49.586;8.646;2023-04-01T11:51:30;1.73;;;1.00;;
10641;SDS011;5369;49.586;8.646;2023-04-01T12:01:37;2.80;;;1.10;;
10641;SDS011;5369;49.586;8.646;2023-04-01T12:04:31;2.30;;;1.20;;
10641;SDS011;5369;49.586;8.646;2023-04-01T12:07:46;0.80;;;0.80;;
10641;SDS011;5369;49.586;8.646;2023-04-01T12:12:30;1.60;;;1.10;;
10641;SDS011;5369;49.586;8.646;2023-04-01T12:15:20;1.10;;;0.97;;
10641;SDS011;5369;49.586;8.646;2023-04-01T12:25:23;1.77;;;1.10;;
10641;SDS011;5369;49.586;8.646;2023-04-01T12:30:49;1.37;;;1.00;;
10641;SDS011;5369;49.586;8.646;2023-04-01T12:33:29;1.30;;;0.90;;
10641;SDS011;5369;49.586;8.646;2023-04-01T12:36:06;1.40;;;0.90;;
10641;SDS011;5369;49.586;8.646;2023-04-01T12:41:07;0.87;;;0.80;;
10641;SDS011;5369;49.586;8.646;2023-04-01T12:46:20;1.63;;;0.73;;
10641;SDS011;5369;49.586;8.646;2023-04-01T13:09:34;1.60;;;1.30;;
10641;SDS011;5369;49.586;8.646;2023-04-01T13:12:06;1.87;;;1.50;;
10641;SDS011;5369;49.586;8.646;2023-04-01T13:15:12;1.20;;;1.10;;
10641;SDS011;5369;49.586;8.646;2023-04-01T13:17:35;1.13;;;1.03;;
10641;SDS011;5369;49.586;8.646;2023-04-01T13:25:19;1.90;;;1.50;;
10641;SDS011;5369;49.586;8.646;2023-04-01T13:27:51;0.83;;;0.80;;
10641;SDS011;5369;49.586;8.646;2023-04-01T13:32:58;0.70;;;0.70;;
10641;SDS011;5369;49.586;8.646;2023-04-01T13:35:39;1.00;;;0.77;;
10641;SDS011;5369;49.586;8.646;2023-04-01T13:38:26;4.80;;;3.87;;
10641;SDS011;5369;49.586;8.646;2023-04-01T13:41:18;1.50;;;1.10;;
10641;SDS011;5369;49.586;8.646;2023-04-01T13:43:49;2.30;;;1.33;;
10641;SDS011;5369;49.586;8.646;2023-04-01T13:46:23;2.70;;;1.40;;
10641;SDS011;5369;49.586;8.646;2023-04-01T13:54:39;0.80;;;0.80;;
10641;SDS011;5369;49.586;8.646;2023-04-01T14:10:20;2.23;;;1.20;;
10641;SDS011;5369;49.586;8.646;2023-04-01T14:15:42;2.73;;;1.80;;
10641;SDS011;5369;49.586;8.646;2023-04-01T14:21:08;5.80;;;1.90;;
10641;SDS011;5369;49.586;8.646;2023-04-01T14:29:14;4.43;;;2.83;;
10641;SDS011;5369;49.586;8.646;2023-04-01T14:31:47;19.53;;;9.80;;
10641;SDS011;5369;49.586;8.646;2023-04-01T14:34:18;16.67;;;8.00;;
10641;SDS011;5369;49.586;8.646;2023-04-01T14:44:50;3.37;;;2.00;;
10641;SDS011;5369;49.586;8.646;2023-04-01T14:47:28;3.80;;;2.07;;
10641;SDS011;5369;49.586;8.646;2023-04-01T14:50:09;1.47;;;1.13;;
10641;SDS011;5369;49.586;8.646;2023-04-01T14:52:39;2.77;;;1.37;;
10641;SDS011;5369;49.586;8.646;2023-04-01T15:03:31;0.80;;;0.80;;
10641;SDS011;5369;49.586;8.646;2023-04-01T15:08:43;1.10;;;0.80;;
10641;SDS011;5369;49.586;8.646;2023-04-01T15:11:29;1.70;;;0.70;;
10641;SDS011;5369;49.586;8.646;2023-04-01T15:14:13;1.20;;;0.80;;
10641;SDS011;5369;49.586;8.646;2023-04-01T15:19:26;1.97;;;0.80;;
10641;SDS011;5369;49.586;8.646;2023-04-01T15:34:53;1.73;;;1.20;;
10641;SDS011;5369;49.586;8.646;2023-04-01T15:37:28;1.63;;;1.10;;
10641;SDS011;5369;49.586;8.646;2023-04-01T15:40:00;1.77;;;1.13;;
10641;SDS011;5369;49.586;8.646;2023-04-01T15:42:34;5.67;;;3.17;;
10641;SDS011;5369;49.586;8.646;2023-04-01T15:45:08;2.60;;;1.90;;
10641;SDS011;5369;49.586;8.646;2023-04-01T15:47:40;2.93;;;1.20;;
10641;SDS011;5369;49.586;8.646;2023-04-01T15:50:24;1.77;;;0.90;;
10641;SDS011;5369;49.586;8.646;2023-04-01T15:55:31;1.40;;;1.10;;
10641;SDS011;5369;49.586;8.646;2023-04-01T16:00:49;2.10;;;0.90;;
10641;SDS011;5369;49.586;8.646;2023-04-01T16:08:45;1.30;;;0.80;;
10641;SDS011;5369;49.586;8.646;2023-04-01T16:19:19;1.27;;;0.80;;
10641;SDS011;5369;49.586;8.646;2023-04-01T16:22:00;3.23;;;0.90;;
10641;SDS011;5369;49.586;8.646;2023-04-01T16:27:18;0.97;;;0.87;;
10641;SDS011;5369;49.586;8.646;2023-04-01T16:29:49;2.37;;;1.10;;
10641;SDS011;5369;49.586;8.646;2023-04-01T16:34:54;1.80;;;1.03;;
10641;SDS011;5369;49.586;8.646;2023-04-01T16:37:45;1.23;;;0.90;;
10641;SDS011;5369;49.586;8.646;2023-04-01T16:42:49;1.27;;;0.90;;
10641;SDS011;5369;49.586;8.646;2023-04-01T16:45:33;0.80;;;0.80;;
10641;SDS011;5369;49.586;8.646;2023-04-01T16:48:06;0.93;;;0.90;;
10641;SDS011;5369;49.586;8.646;2023-04-01T16:50:41;1.83;;;0.83;;
10641;SDS011;5369;49.586;8.646;2023-04-01T16:58:26;1.43;;;1.00;;
10641;SDS011;5369;49.586;8.646;2023-04-01T17:03:53;1.00;;;0.90;;
10641;SDS011;5369;49.586;8.646;2023-04-01T17:11:29;0.97;;;0.87;;
10641;SDS011;5369;49.586;8.646;2023-04-01T17:14:37;0.80;;;0.80;;
10641;SDS011;5369;49.586;8.646;2023-04-01T17:16:54;1.53;;;0.70;;
10641;SDS011;5369;49.586;8.646;2023-04-01T17:26:59;1.40;;;0.80;;
10641;SDS011;5369;49.586;8.646;2023-04-01T17:32:31;0.90;;;0.80;;
10641;SDS011;5369;49.586;8.646;2023-04-01T17:37:48;0.80;;;0.77;;
10641;SDS011;5369;49.586;8.646;2023-04-01T17:45:25;0.90;;;0.90;;
10641;SDS011;5369;49.586;8.646;2023-04-01T17:47:58;1.43;;;0.90;;
10641;SDS011;5369;49.586;8.646;2023-04-01T17:50:42;0.80;;;0.67;;
10641;SDS011;5369;49.586;8.646;2023-04-01T17:56:08;0.70;;;0.70;;
10641;SDS011;5369;49.586;8.646;2023-04-01T17:58:40;0.80;;;0.70;;
10641;SDS011;5369;49.586;8.646;2023-04-01T18:03:55;1.80;;;0.80;;
10641;SDS011;5369;49.586;8.646;2023-04-01T18:06:29;1.40;;;1.10;;
10641;SDS011;5369;49.586;8.646;2023-04-01T18:14:07;0.90;;;0.70;;
10641;SDS011;5369;49.586;8.646;2023-04-01T18:21:47;7.03;;;4.37;;
10641;SDS011;5369;49.586;8.646;2023-04-01T18:27:04;8.60;;;5.83;;
10641;SDS011;5369;49.586;8.646;2023-04-01T18:32:37;3.20;;;2.13;;
10641;SDS011;5369;49.586;8.646;2023-04-01T18:40:39;7.23;;;3.50;;
10641;SDS011;5369;49.586;8.646;2023-04-01T18:43:12;1.63;;;1.30;;
10641;SDS011;5369;49.586;8.646;2023-04-01T18:45:46;1.57;;;1.10;;
10641;SDS011;5369;49.586;8.646;2023-04-01T18:48:17;1.80;;;0.93;;
10641;SDS011;5369;49.586;8.646;2023-04-01T18:50:55;1.37;;;0.83;;
10641;SDS011;5369;49.586;8.646;2023-04-01T18:53:27;1.43;;;0.90;;
10641;SDS011;5369;49.586;8.646;2023-04-01T18:55:56;1.63;;;1.00;;
10641;SDS011;5369;49.586;8.646;2023-04-01T18:58:45;1.43;;;1.00;;
10641;SDS011;5369;49.586;8.646;2023-04-01T19:01:21;1.10;;;0.90;;
10641;SDS011;5369;49.586;8.646;2023-04-01T19:04:05;0.93;;;0.93;;
10641;SDS011;5369;49.586;8.646;2023-04-01T19:06:41;2.10;;;1.10;;
10641;SDS011;5369;49.586;8.646;2023-04-01T19:09:25;1.57;;;1.10;;
10641;SDS011;5369;49.586;8.646;2023-04-01T19:14:44;1.53;;;1.10;;
10641;SDS011;5369;49.586;8.646;2023-04-01T19:17:21;5.57;;;2.40;;
10641;SDS011;5369;49.586;8.646;2023-04-01T19:22:30;1.67;;;1.40;;
10641;SDS011;5369;49.586;8.646;2023-04-01T19:27:42;4.70;;;2.50;;
10641;SDS011;5369;49.586;8.646;2023-04-01T19:35:49;4.97;;;2.60;;
10641;SDS011;5369;49.586;8.646;2023-04-01T19:38:31;10.10;;;3.20;;
10641;SDS011;5369;49.586;8.646;2023-04-01T19:41:06;8.60;;;3.60;;
10641;SDS011;5369;49.586;8.646;2023-04-01T19:43:44;6.50;;;2.83;;
10641;SDS011;5369;49.586;8.646;2023-04-01T19:49:03;7.30;;;3.30;;
10641;SDS011;5369;49.586;8.646;2023-04-01T19:51:37;4.93;;;2.83;;
10641;SDS011;5369;49.586;8.646;2023-04-01T19:59:22;3.70;;;2.30;;
10641;SDS011;5369;49.586;8.646;2023-04-01T20:04:49;5.17;;;2.63;;
10641;SDS011;5369;49.586;8.646;2023-04-01T20:07:34;5.93;;;2.63;;
10641;SDS011;5369;49.586;8.646;2023-04-01T20:15:27;3.00;;;2.20;;
10641;SDS011;5369;49.586;8.646;2023-04-01T20:17:56;2.47;;;1.70;;
10641;SDS011;5369;49.586;8.646;2023-04-01T20:20:24;2.90;;;1.90;;
10641;SDS011;5369;49.586;8.646;2023-04-01T20:23:01;2.77;;;1.90;;
10641;SDS011;5369;49.586;8.646;2023-04-01T20:25:39;2.13;;;1.80;;
10641;SDS011;5369;49.586;8.646;2023-04-01T20:30:43;1.90;;;1.70;;
10641;SDS011;5369;49.586;8.646;2023-04-01T20:41:20;3.23;;;2.40;;
10641;SDS011;5369;49.586;8.646;2023-04-01T20:46:45;2.77;;;1.90;;
10641;SDS011;5369;49.586;8.646;2023-04-01T20:51:43;2.20;;;1.70;;
10641;SDS011;5369;49.586;8.646;2023-04-01T20:54:21;3.33;;;2.07;;
10641;SDS011;5369;49.586;8.646;2023-04-01T20:56:56;3.20;;;1.80;;
10641;SDS011;5369;49.586;8.646;2023-04-01T21:01:54;2.13;;;1.63;;
10641;SDS011;5369;49.586;8.646;2023-04-01T21:04:36;3.53;;;2.03;;
10641;SDS011;5369;49.586;8.646;2023-04-01T21:07:26;2.33;;;1.70;;
10641;SDS011;5369;49.586;8.646;2023-04-01T21:12:56;2.13;;;1.60;;
10641;SDS011;5369;49.586;8.646;2023-04-01T21:15:29;1.93;;;1.50;;
10641;SDS011;5369;49.586;8.646;2023-04-01T21:18:00;2.53;;;1.50;;
10641;SDS011;5369;49.586;8.646;2023-04-01T21:23:05;2.63;;;1.60;;
10641;SDS011;5369;49.586;8.646;2023-04-01T21:31:03;4.43;;;1.73;;
10641;SDS011;5369;49.586;8.646;2023-04-01T21:33:49;2.10;;;1.50;;
10641;SDS011;5369;49.586;8.646;2023-04-01T21:36:38;2.43;;;1.60;;
10641;SDS011;5369;49.586;8.646;2023-04-01T21:45:06;2.87;;;1.60;;
10641;SDS011;5369;49.586;8.646;2023-04-01T21:52:19;2.20;;;1.70;;
10641;SDS011;5369;49.586;8.646;2023-04-01T22:05:06;4.70;;;1.93;;
10641;SDS011;5369;49.586;8.646;2023-04-01T22:07:41;2.73;;;1.90;;
10641;SDS011;5369;49.586;8.646;2023-04-01T22:12:42;2.10;;;1.50;;
10641;SDS011;5369;49.586;8.646;2023-04-01T22:15:18;1.90;;;1.70;;
10641;SDS011;5369;49.586;8.646;2023-04-01T22:17:52;3.27;;;1.77;;
10641;SDS011;5369;49.586;8.646;2023-04-01T22:20:27;2.60;;;1.80;;
10641;SDS011;5369;49.586;8.646;2023-04-01T22:25:23;1.70;;;1.50;;
10641;SDS011;5369;49.586;8.646;2023-04-01T22:27:52;2.43;;;1.80;;
10641;SDS011;5369;49.586;8.646;2023-04-01T22:32:59;4.30;;;2.57;;
10641;SDS011;5369;49.586;8.646;2023-04-01T22:35:39;3.37;;;2.10;;
10641;SDS011;5369;49.586;8.646;2023-04-01T22:40:39;2.70;;;1.90;;
10641;SDS011;5369;49.586;8.646;2023-04-01T22:43:08;2.93;;;2.10;;
10641;SDS011;5369;49.586;8.646;2023-04-01T22:50:39;1.93;;;1.60;;
10641;SDS011;5369;49.586;8.646;2023-04-01T22:53:32;3.33;;;2.03;;
10641;SDS011;5369;49.586;8.646;2023-04-01T22:55:53;4.03;;;2.10;;
10641;SDS011;5369;49.586;8.646;2023-04-01T23:01:16;3.40;;;2.10;;
10641;SDS011;5369;49.586;8.646;2023-04-01T23:03:44;2.90;;;1.87;;
10641;SDS011;5369;49.586;8.646;2023-04-01T23:06:14;2.50;;;1.90;;
10641;SDS011;5369;49.586;8.646;2023-04-01T23:08:53;2.90;;;1.83;;
10641;SDS011;5369;49.586;8.646;2023-04-01T23:11:28;4.63;;;2.53;;
10641;SDS011;5369;49.586;8.646;2023-04-01T23:16:31;3.43;;;2.07;;
10641;SDS011;5369;49.586;8.646;2023-04-01T23:19:01;3.07;;;2.27;;
10641;SDS011;5369;49.586;8.646;2023-04-01T23:26:47;2.33;;;1.73;;
10641;SDS011;5369;49.586;8.646;2023-04-01T23:29:16;4.53;;;1.80;;
10641;SDS011;5369;49.586;8.646;2023-04-01T23:31:45;3.70;;;2.10;;
10641;SDS011;5369;49.586;8.646;2023-04-01T23:36:45;4.13;;;2.00;;
10641;SDS011;5369;49.586;8.646;2023-04-01T23:42:02;4.07;;;2.07;;
10641;SDS011;5369;49.586;8.646;2023-04-01T23:44:29;3.00;;;2.10;;
10641;SDS011;5369;49.586;8.646;2023-04-01T23:46:55;3.40;;;2.00;;
10641;SDS011;5369;49.586;8.646;2023-04-01T23:49:27;7.57;;;3.83;;
10641;SDS011;5369;49.586;8.646;2023-04-01T23:51:59;3.37;;;2.27;;
10641;SDS011;5369;49.586;8.646;2023-04-01T23:54:33;2.33;;;1.80;;
10641;SDS011;5369;49.586;8.646;2023-04-01T23:56:59;3.27;;;1.73;;
10641;SDS011;5369;49.586;8.646;2023-04-01T23:59:32;4.00;;;2.00;;
